Time;durP1;ratioP1;P1;durP2;ratioP2;P2;SDS_P1;SDS_P2;PMS_P1;PMS_P2;Temp;Humidity;BMP_temperature;BMP_pressure;BME280_temperature;BME280_humidity;BME280_pressure;Samples;Min_cycle;Max_cycle;Signal;HPM_P1;HPM_P2
2023/01/19 00:01:35;;;;;;;37.33;5.28;;;;;;;20.58;62.49;98157.06;7308030;19;129357;-40
2023/01/19 00:04:04;;;;;;;28.60;4.07;;;;;;;20.56;62.99;98156.44;7307410;19;129570;-38
2023/01/19 00:06:30;;;;;;;25.67;3.95;;;;;;;20.60;62.54;98163.78;7307111;19;130401;-40
2023/01/19 00:08:56;;;;;;;17.97;3.40;;;;;;;20.57;63.88;98158.06;7311631;19;129767;-40
2023/01/19 00:11:25;;;;;;;24.97;3.63;;;;;;;20.58;62.60;98165.72;7308098;19;129362;-41
2023/01/19 00:13:52;;;;;;;24.70;3.38;;;;;;;20.58;62.87;98159.69;7306708;19;129050;-38
2023/01/19 00:16:20;;;;;;;;;;;;;;;20.59;64.46;98159.50;7307333;19;129356;-38
2023/01/19 00:18:46;;;;;;;21.17;3.75;;;;;;;20.62;64.63;98161.00;7310632;19;129449;-39
2023/01/19 00:21:16;;;;;;;30.42;4.20;;;;;;;20.60;63.58;98160.34;7312422;19;129036;-39
2023/01/19 00:23:46;;;;;;;21.48;3.35;;;;;;;20.55;61.93;98165.25;7304539;19;130192;-38
2023/01/19 00:26:15;;;;;;;21.25;3.78;;;;;;;20.44;62.42;98163.00;7308642;19;130100;-38
2023/01/19 00:28:42;;;;;;;22.17;3.83;;;;;;;20.40;62.31;98172.13;7309746;19;129681;-39
2023/01/19 00:31:08;;;;;;;37.35;5.18;;;;;;;20.37;62.57;98178.50;7309746;19;129297;-39
2023/01/19 00:33:34;;;;;;;28.90;3.90;;;;;;;20.37;62.01;98167.25;7307750;19;129346;-38
2023/01/19 00:36:04;;;;;;;38.03;4.47;;;;;;;20.53;62.08;98172.44;7309692;19;130034;-39
2023/01/19 00:38:30;;;;;;;20.02;3.40;;;;;;;20.63;61.43;98179.09;7310803;19;129567;-41
2023/01/19 00:40:55;;;;;;;30.73;4.87;;;;;;;20.77;61.47;98185.44;7311984;19;129165;-39
2023/01/19 00:43:24;;;;;;;37.15;5.07;;;;;;;20.83;60.81;98182.13;7306872;19;130472;-39
2023/01/19 00:45:50;;;;;;;21.25;3.28;;;;;;;20.90;60.99;98183.09;7305757;19;129680;-41
2023/01/19 00:48:16;;;;;;;22.35;3.55;;;;;;;20.87;60.21;98170.38;7307536;19;129221;-39
2023/01/19 00:50:49;;;;;;;27.73;4.03;;;;;;;20.97;60.37;98191.06;7307097;19;129896;-36
2023/01/19 00:53:15;;;;;;;34.55;4.78;;;;;;;20.97;60.69;98191.91;7308649;19;129110;-39
2023/01/19 00:55:41;;;;;;;17.60;3.40;;;;;;;20.94;60.54;98196.63;7307945;19;130264;-40
2023/01/19 00:58:07;;;;;;;15.97;3.10;;;;;;;20.91;60.44;98205.59;7310137;19;129555;-40
2023/01/19 01:00:33;;;;;;;19.98;3.30;;;;;;;20.77;60.28;98186.22;7310636;19;129115;-38
2023/01/19 01:02:59;;;;;;;24.03;3.43;;;;;;;20.80;60.83;98205.97;7307624;19;129355;-35
2023/01/19 01:05:25;;;;;;;24.55;4.15;;;;;;;20.81;61.28;98204.97;7304963;19;130593;-40
2023/01/19 01:07:51;;;;;;;21.45;3.20;;;;;;;20.75;61.09;98210.88;7305344;19;130408;-39
2023/01/19 01:10:20;;;;;;;24.47;3.43;;;;;;;20.72;61.56;98206.00;7308167;19;129146;-40
2023/01/19 01:12:47;;;;;;;30.33;4.10;;;;;;;20.67;61.22;98206.53;7307175;19;129421;-40
2023/01/19 01:15:14;;;;;;;40.53;5.78;;;;;;;20.62;61.04;98206.22;7309333;19;129598;-37
2023/01/19 01:17:45;;;;;;;24.70;4.05;;;;;;;20.59;61.33;98205.72;7307638;19;129855;-38
2023/01/19 01:20:16;;;;;;;19.50;3.25;;;;;;;20.56;61.98;98204.25;7309886;19;128943;-41
2023/01/19 01:22:46;;;;;;;30.67;4.25;;;;;;;20.52;62.00;98212.59;7306883;19;129339;-37
2023/01/19 01:25:14;;;;;;;61.05;7.65;;;;;;;20.39;61.75;98197.44;7308138;19;129583;-38
2023/01/19 01:27:40;;;;;;;22.55;3.33;;;;;;;20.34;62.18;98204.13;7305370;19;130365;-40
2023/01/19 01:30:07;;;;;;;;;;;;;;;20.41;62.54;98220.75;7307260;19;129410;-39
2023/01/19 01:32:33;;;;;;;24.58;3.50;;;;;;;20.40;61.66;98229.56;7307107;19;129338;-36
2023/01/19 01:35:01;;;;;;;26.73;3.43;;;;;;;20.32;62.22;98222.56;7311065;19;129502;-34
2023/01/19 01:37:27;;;;;;;32.63;4.22;;;;;;;20.34;61.96;98225.00;7314883;19;129548;-38
2023/01/19 01:39:53;;;;;;;15.00;2.53;;;;;;;20.39;61.83;98222.72;7316797;19;129611;-39
2023/01/19 01:42:25;;;;;;;28.20;4.03;;;;;;;20.34;62.44;98215.38;7313005;19;128920;-37
2023/01/19 01:44:56;;;;;;;27.77;3.58;;;;;;;20.33;62.72;98215.53;7313271;19;129851;-39
2023/01/19 01:47:29;;;;;;;20.67;3.10;;;;;;;20.28;62.82;98215.25;7313304;19;130512;-40
2023/01/19 01:50:25;;;;;;;33.67;4.38;;;;;;;20.30;62.97;98223.69;7315889;19;129471;-38
2023/01/19 01:53:10;;;;;;;16.55;2.63;;;;;;;20.32;62.27;98226.97;7310544;19;129799;-38
2023/01/19 01:55:46;;;;;;;22.35;3.40;;;;;;;20.33;62.40;98223.34;7313731;19;130247;-38
2023/01/19 01:58:15;;;;;;;23.23;3.42;;;;;;;20.32;62.46;98226.97;7313949;19;130975;-38
2023/01/19 02:03:33;;;;;;;26.60;3.50;;;;;;;20.46;61.82;98237.53;7310075;19;129275;-38
2023/01/19 02:06:03;;;;;;;28.45;3.97;;;;;;;20.61;61.41;98237.69;7309951;19;130059;-36
2023/01/19 02:14:11;;;;;;;41.10;5.13;;;;;;;20.91;61.10;98244.00;7312742;19;129365;-41
2023/01/19 02:16:40;;;;;;;24.43;3.70;;;;;;;20.96;61.02;98241.69;7315461;19;129818;-39
2023/01/19 02:19:12;;;;;;;40.58;5.05;;;;;;;20.94;60.01;98217.53;7313258;19;129413;-38
2023/01/19 02:22:01;;;;;;;24.17;3.78;;;;;;;20.90;60.23;98222.28;7314919;19;129553;-38
2023/01/19 02:24:30;;;;;;;32.45;3.78;;;;;;;20.92;60.17;98241.22;7312186;19;129246;-39
2023/01/19 02:26:56;;;;;;;31.35;3.60;;;;;;;20.95;60.50;98235.66;7309479;19;129415;-39
2023/01/19 02:29:25;;;;;;;44.83;4.90;;;;;;;20.88;61.01;98239.91;7311564;19;130572;-37
2023/01/19 02:31:53;;;;;;;20.05;3.00;;;;;;;20.87;60.46;98248.75;7312167;19;129008;-40
2023/01/19 02:34:21;;;;;;;20.30;3.03;;;;;;;20.80;61.18;98258.22;7313832;19;129732;-36
2023/01/19 02:37:02;;;;;;;22.88;3.25;;;;;;;20.73;61.11;98262.47;7313031;19;130794;-40
2023/01/19 02:39:50;;;;;;;28.88;3.28;;;;;;;20.65;61.48;98260.69;7315598;19;130113;-37
2023/01/19 02:42:25;;;;;;;34.10;4.13;;;;;;;20.64;61.63;98263.47;7313689;19;129167;-40
2023/01/19 02:44:56;;;;;;;23.70;2.80;;;;;;;20.64;60.92;98258.25;7314327;19;129166;-38
2023/01/19 02:47:22;;;;;;;18.25;2.72;;;;;;;20.59;61.60;98256.13;7309632;19;131466;-39
2023/01/19 02:49:56;;;;;;;17.50;2.53;;;;;;;20.53;61.72;98251.56;7314642;19;130424;-41
2023/01/19 02:52:23;;;;;;;17.20;2.85;;;;;;;20.50;62.07;98253.69;7310655;19;130958;-40
2023/01/19 02:55:07;;;;;;;20.77;3.03;;;;;;;20.47;62.05;98257.47;7312629;19;129153;-37
2023/01/19 02:57:57;;;;;;;20.83;3.20;;;;;;;20.43;62.01;98260.53;7309574;19;130753;-37
2023/01/19 03:00:44;;;;;;;32.50;3.58;;;;;;;20.42;61.88;98264.16;7312431;19;129816;-38
2023/01/19 03:03:24;;;;;;;43.10;4.85;;;;;;;20.40;61.92;98266.09;7307909;19;129393;-37
2023/01/19 03:06:04;;;;;;;27.90;3.20;;;;;;;20.33;62.37;98268.56;7310606;19;129338;-37
2023/01/19 03:08:47;;;;;;;33.20;3.78;;;;;;;20.32;63.01;98268.72;7308614;19;129350;-37
2023/01/19 03:11:14;;;;;;;29.20;4.18;;;;;;;20.31;62.95;98267.91;7311409;19;130069;-38
2023/01/19 03:13:51;;;;;;;22.33;3.05;;;;;;;20.31;62.87;98267.09;7310850;19;129146;-38
2023/01/19 03:16:29;;;;;;;20.58;2.80;;;;;;;20.28;62.38;98262.22;7313204;19;130831;-39
2023/01/19 03:19:11;;;;;;;17.88;2.47;;;;;;;20.32;62.78;98263.50;7314023;19;129297;-39
2023/01/19 03:21:41;;;;;;;35.20;4.63;;;;;;;20.34;61.93;98272.00;7310342;19;129899;-40
2023/01/19 03:24:13;;;;;;;36.97;4.50;;;;;;;20.41;61.91;98275.59;7308822;19;130510;-39
2023/01/19 03:26:45;;;;;;;42.40;4.72;;;;;;;20.45;62.23;98279.47;7309884;19;129180;-38
2023/01/19 03:29:18;;;;;;;23.30;3.13;;;;;;;20.56;62.04;98287.00;7310303;19;130209;-38
2023/01/19 03:31:48;;;;;;;19.48;2.90;;;;;;;20.64;61.26;98284.38;7311509;19;130067;-40
2023/01/19 03:34:17;;;;;;;23.58;3.33;;;;;;;20.73;61.43;98283.38;7310857;19;129436;-40
2023/01/19 03:36:49;;;;;;;22.92;3.03;;;;;;;20.71;60.96;98274.88;7310671;19;129238;-39
2023/01/19 03:39:21;;;;;;;31.48;3.83;;;;;;;20.78;60.27;98275.84;7311719;19;129086;-38
2023/01/19 03:41:56;;;;;;;19.13;2.72;;;;;;;20.93;60.16;98292.47;7311466;19;129297;-38
2023/01/19 03:44:25;;;;;;;11.27;2.08;;;;;;;21.04;60.31;98294.75;7313555;19;128992;-39
2023/01/19 03:46:52;;;;;;;45.78;5.00;;;;;;;21.00;59.85;98277.78;7308257;19;129714;-38
2023/01/19 03:49:18;;;;;;;18.73;2.63;;;;;;;21.09;59.55;98292.44;7312542;19;128983;-37
2023/01/19 03:51:44;;;;;;;31.47;3.83;;;;;;;21.00;59.98;98290.88;7308825;19;129743;-39
2023/01/19 03:54:10;;;;;;;41.95;4.40;;;;;;;20.97;60.60;98291.19;7308051;19;129024;-40
2023/01/19 03:56:36;;;;;;;25.37;3.23;;;;;;;20.96;60.51;98294.75;7307967;19;130073;-38
2023/01/19 03:59:05;;;;;;;23.77;2.97;;;;;;;20.89;60.21;98293.78;7308863;19;130689;-36
2023/01/19 04:01:31;;;;;;;31.67;3.85;;;;;;;20.87;60.12;98295.75;7311169;19;129561;-39
2023/01/19 04:04:00;;;;;;;30.83;3.72;;;;;;;20.79;60.76;98298.41;7306661;19;129420;-38
2023/01/19 04:06:26;;;;;;;18.25;2.38;;;;;;;20.74;61.44;98292.84;7309920;19;128856;-38
2023/01/19 04:08:52;;;;;;;18.85;2.65;;;;;;;20.67;60.95;98302.31;7309308;19;129504;-40
2023/01/19 04:11:21;;;;;;;10.23;1.93;;;;;;;20.66;60.81;98303.28;7311815;19;129582;-36
2023/01/19 04:13:47;;;;;;;74.95;8.13;;;;;;;20.53;60.91;98290.75;7307370;19;130583;-37
2023/01/19 04:16:19;;;;;;;23.42;3.10;;;;;;;20.58;61.74;98311.94;7306588;19;129254;-38
2023/01/19 04:18:47;;;;;;;36.15;4.43;;;;;;;20.52;61.51;98314.41;7309107;19;129598;-39
2023/01/19 04:21:13;;;;;;;24.83;3.13;;;;;;;20.54;61.65;98305.41;7310567;19;130101;-38
2023/01/19 04:23:40;;;;;;;28.17;3.47;;;;;;;20.48;62.05;98305.25;7304162;19;129641;-36
2023/01/19 04:26:07;;;;;;;20.60;2.70;;;;;;;20.43;61.60;98297.09;7309946;19;129709;-39
2023/01/19 04:28:35;;;;;;;26.90;3.15;;;;;;;20.42;61.79;98301.53;7307215;19;130469;-36
2023/01/19 04:31:02;;;;;;;27.08;3.25;;;;;;;20.44;61.67;98298.75;7308523;19;130528;-38
2023/01/19 04:33:30;;;;;;;21.40;2.70;;;;;;;20.34;62.48;98298.09;7305980;19;129118;-39
2023/01/19 04:35:59;;;;;;;23.25;3.15;;;;;;;20.33;62.43;98275.56;7305810;19;129554;-40
2023/01/19 04:38:26;;;;;;;19.88;2.60;;;;;;;20.63;61.54;98298.38;7311331;19;129537;-40
2023/01/19 04:40:53;;;;;;;39.72;4.57;;;;;;;20.96;60.42;98296.56;7309063;19;129210;-38
2023/01/19 04:43:20;;;;;;;22.90;2.88;;;;;;;21.31;59.45;98289.13;7306155;19;130182;-41
2023/01/19 04:45:48;;;;;;;;;;;;;;;21.56;58.99;98288.03;7305586;19;129421;-41
2023/01/19 04:48:14;;;;;;;40.83;4.50;;;;;;;21.88;57.66;98292.31;7305212;19;131282;-35
2023/01/19 04:50:40;;;;;;;;;;;;;;;22.01;57.40;98297.78;7310356;19;129211;-40
2023/01/19 04:53:07;;;;;;;21.25;3.00;;;;;;;22.21;56.68;98300.75;7308197;19;129544;-40
2023/01/19 04:55:35;;;;;;;27.58;3.50;;;;;;;22.25;56.98;98304.63;7305762;19;129270;-39
2023/01/19 04:58:01;;;;;;;20.98;2.65;;;;;;;22.37;56.71;98303.25;7310953;19;129053;-40
2023/01/19 05:00:27;;;;;;;36.25;3.80;;;;;;;22.43;56.64;98300.72;7308837;19;129756;-38
2023/01/19 05:02:59;;;;;;;26.23;3.40;;;;;;;22.31;55.94;98286.44;7307319;19;130016;-38
2023/01/19 05:05:26;;;;;;;25.98;3.08;;;;;;;22.41;56.58;98299.28;7309216;19;129512;-41
2023/01/19 05:07:52;;;;;;;19.30;2.58;;;;;;;22.45;55.77;98284.84;7307876;19;129552;-41
2023/01/19 05:10:19;;;;;;;27.50;3.35;;;;;;;22.49;56.05;98286.13;7305360;19;131741;-39
2023/01/19 05:12:45;;;;;;;23.42;2.60;;;;;;;22.48;56.15;98284.47;7307612;19;129522;-37
2023/01/19 05:15:11;;;;;;;51.00;5.55;;;;;;;22.52;56.05;98288.38;7307276;19;129380;-40
2023/01/19 05:17:37;;;;;;;23.70;3.30;;;;;;;22.44;56.49;98285.84;7308120;19;129655;-37
2023/01/19 05:20:04;;;;;;;43.78;4.78;;;;;;;22.50;55.69;98292.97;7309144;19;129218;-39
2023/01/19 05:22:30;;;;;;;38.45;3.85;;;;;;;22.53;55.75;98285.63;7307338;19;129413;-41
2023/01/19 05:24:57;;;;;;;18.45;2.17;;;;;;;22.55;56.25;98291.50;7306628;19;129645;-41
2023/01/19 05:27:22;;;;;;;17.23;2.28;;;;;;;22.58;55.99;98282.47;7307057;19;129716;-40
2023/01/19 05:29:49;;;;;;;22.87;2.47;;;;;;;22.54;56.37;98283.81;7309755;19;129167;-36
2023/01/19 05:32:15;;;;;;;35.83;4.22;;;;;;;22.61;56.15;98285.53;7308196;19;129059;-40
2023/01/19 05:34:41;;;;;;;41.93;4.43;;;;;;;22.65;55.54;98286.00;7304445;19;130362;-40
2023/01/19 05:37:08;;;;;;;24.85;3.30;;;;;;;22.66;55.33;98288.44;7304332;19;131469;-38
2023/01/19 05:39:34;;;;;;;18.88;2.60;;;;;;;22.54;55.67;98278.59;7307126;19;129891;-39
2023/01/19 05:42:00;;;;;;;31.52;3.92;;;;;;;22.61;56.01;98275.06;7305632;19;129129;-40
2023/01/19 05:44:27;;;;;;;43.00;4.47;;;;;;;22.62;55.64;98273.28;7300849;19;131701;-40
2023/01/19 05:46:53;;;;;;;21.05;2.30;;;;;;;22.58;55.85;98285.91;7305901;19;129991;-39
2023/01/19 05:49:19;;;;;;;50.10;6.13;;;;;;;22.59;56.10;98279.66;7297617;19;130972;-39
2023/01/19 05:51:45;;;;;;;26.10;3.40;;;;;;;22.55;55.96;98274.97;7307476;19;129345;-39
2023/01/19 05:54:15;;;;;;;25.05;2.85;;;;;;;22.59;55.85;98278.88;7305317;19;129937;-38
2023/01/19 05:56:44;;;;;;;19.50;2.50;;;;;;;22.60;55.76;98285.72;7304499;19;130087;-39
2023/01/19 05:59:25;;;;;;;41.95;4.55;;;;;;;22.45;56.39;98284.84;7307494;19;129483;-38
2023/01/19 06:01:55;;;;;;;18.52;2.15;;;;;;;22.48;56.70;98287.09;7299460;19;131350;-40
2023/01/19 06:04:22;;;;;;;27.80;3.15;;;;;;;22.31;57.01;98290.88;7306271;19;130017;-37
2023/01/19 06:06:52;;;;;;;19.02;2.30;;;;;;;22.19;57.20;98289.63;7296135;19;131357;-39
2023/01/19 06:09:21;;;;;;;26.98;2.75;;;;;;;22.18;57.28;98294.03;7304823;19;129548;-38
2023/01/19 06:11:47;;;;;;;23.25;2.92;;;;;;;22.25;57.32;98292.38;7300575;19;130249;-40
2023/01/19 06:14:14;;;;;;;32.58;3.67;;;;;;;22.25;56.94;98294.97;7303230;19;129519;-38
2023/01/19 06:16:41;;;;;;;25.95;3.33;;;;;;;22.16;56.96;98279.53;7304052;19;130258;-40
2023/01/19 06:19:10;;;;;;;12.65;2.00;;;;;;;22.37;57.18;98298.00;7306488;19;129262;-39
2023/01/19 06:21:37;;;;;;;33.88;3.53;;;;;;;22.30;56.95;98295.28;7306823;19;130634;-40
2023/01/19 06:24:08;;;;;;;27.20;3.03;;;;;;;22.35;56.48;98294.75;7311034;19;129070;-39
2023/01/19 06:26:34;;;;;;;25.02;3.30;;;;;;;22.36;57.10;98314.72;7306895;19;130472;-39
2023/01/19 06:29:00;;;;;;;16.23;1.93;;;;;;;22.34;56.88;98308.84;7310466;19;129810;-39
2023/01/19 06:31:27;;;;;;;16.90;2.10;;;;;;;22.37;56.58;98319.78;7309513;19;129930;-37
2023/01/19 06:33:53;;;;;;;28.58;3.10;;;;;;;22.33;57.29;98322.94;7310232;19;129030;-38
2023/01/19 06:36:20;;;;;;;65.80;7.70;;;;;;;22.41;57.08;98317.63;7295573;19;131511;-41
2023/01/19 06:38:46;;;;;;;18.35;2.30;;;;;;;22.33;56.73;98317.69;7293756;19;131750;-38
2023/01/19 06:41:13;;;;;;;31.60;3.50;;;;;;;22.38;57.36;98336.31;7306468;19;129336;-38
2023/01/19 06:43:39;;;;;;;42.08;4.38;;;;;;;22.40;56.88;98339.53;7309687;19;129271;-37
2023/01/19 06:46:06;;;;;;;13.60;2.20;;;;;;;22.43;57.07;98344.47;7308854;19;129628;-40
2023/01/19 06:48:32;;;;;;;13.45;1.77;;;;;;;22.43;57.10;98349.69;7309655;19;130098;-39
2023/01/19 06:50:58;;;;;;;17.85;2.17;;;;;;;22.39;56.37;98348.41;7313796;19;130703;-38
2023/01/19 06:53:26;;;;;;;27.17;2.92;;;;;;;22.44;56.92;98351.31;7307749;19;133046;-38
2023/01/19 06:55:53;;;;;;;13.85;1.85;;;;;;;22.50;56.53;98347.97;7312018;19;129303;-38
2023/01/19 06:58:19;;;;;;;;;;;;;;;22.47;56.78;98350.97;7308926;19;129887;-38
2023/01/19 07:00:45;;;;;;;26.75;3.17;;;;;;;22.46;56.48;98349.34;7312579;19;129013;-39
2023/01/19 07:03:19;;;;;;;41.57;4.80;;;;;;;22.55;56.79;98353.53;7302800;19;129978;-40
2023/01/19 07:05:45;;;;;;;42.45;4.57;;;;;;;22.51;57.19;98354.88;7311126;19;130818;-38
2023/01/19 07:08:14;;;;;;;33.55;3.70;;;;;;;22.50;56.23;98354.03;7311344;19;129639;-39
2023/01/19 07:10:40;;;;;;;35.00;3.70;;;;;;;22.56;56.14;98361.22;7310916;19;129265;-39
2023/01/19 07:13:06;;;;;;;20.37;2.77;;;;;;;22.45;56.42;98342.47;7309559;19;130892;-40
2023/01/19 07:15:33;;;;;;;27.80;3.07;;;;;;;22.53;56.37;98355.50;7311119;19;129530;-38
2023/01/19 07:18:02;;;;;;;14.50;1.77;;;;;;;22.59;56.15;98360.06;7311075;19;129660;-38
2023/01/19 07:20:32;;;;;;;29.13;3.35;;;;;;;22.54;56.47;98363.22;7310204;19;129543;-39
2023/01/19 07:22:58;;;;;;;27.88;3.13;;;;;;;22.59;56.02;98362.69;7308164;19;129779;-39
2023/01/19 07:25:25;;;;;;;51.10;5.35;;;;;;;22.59;56.74;98366.09;7308721;19;129539;-39
2023/01/19 07:27:51;;;;;;;22.35;2.45;;;;;;;22.61;56.86;98360.72;7311159;19;129318;-38
2023/01/19 07:30:17;;;;;;;19.50;2.35;;;;;;;22.58;56.80;98355.81;7312361;19;128966;-39
2023/01/19 07:32:43;;;;;;;37.13;4.50;;;;;;;22.63;56.13;98356.09;7308505;19;129981;-41
2023/01/19 07:35:10;;;;;;;43.13;4.90;;;;;;;22.67;55.84;98362.63;7310471;19;129071;-39
2023/01/19 07:37:36;;;;;;;23.57;2.77;;;;;;;22.60;56.61;98366.94;7311332;19;129362;-39
2023/01/19 07:40:03;;;;;;;19.23;2.38;;;;;;;22.56;56.22;98370.91;7311047;19;129522;-41
2023/01/19 07:42:29;;;;;;;22.73;2.40;;;;;;;22.49;56.68;98370.75;7310247;19;129248;-37
2023/01/19 07:44:57;;;;;;;22.42;2.45;;;;;;;22.39;56.86;98377.22;7309939;19;129136;-39
2023/01/19 07:47:24;;;;;;;26.10;2.67;;;;;;;22.38;56.55;98378.22;7310988;19;130269;-40
2023/01/19 07:49:50;;;;;;;17.63;2.08;;;;;;;22.34;57.23;98361.19;7308781;19;129409;-40
2023/01/19 07:52:16;;;;;;;23.85;2.67;;;;;;;22.43;56.78;98378.50;7310409;19;129139;-40
2023/01/19 07:54:45;;;;;;;42.93;4.53;;;;;;;22.45;56.95;98376.50;7309663;19;130074;-38
2023/01/19 07:57:11;;;;;;;28.45;3.50;;;;;;;22.42;56.88;98380.31;7309899;19;129479;-40
2023/01/19 07:59:40;;;;;;;19.67;2.33;;;;;;;22.42;56.66;98384.72;7311254;19;129086;-40
2023/01/19 08:02:08;;;;;;;21.88;2.97;;;;;;;22.53;56.59;98387.78;7309870;19;130739;-37
2023/01/19 08:04:34;;;;;;;32.25;3.38;;;;;;;22.38;56.88;98373.75;7305647;19;130016;-38
2023/01/19 08:07:00;;;;;;;20.90;2.30;;;;;;;22.39;56.83;98377.22;7307231;19;129977;-36
2023/01/19 08:09:26;;;;;;;25.67;2.67;;;;;;;22.56;56.32;98391.88;7307426;19;129569;-40
2023/01/19 08:11:55;;;;;;;22.50;2.63;;;;;;;22.54;56.89;98401.69;7306077;19;129326;-39
2023/01/19 08:14:23;;;;;;;27.60;2.92;;;;;;;22.57;56.31;98403.97;7308296;19;130239;-40
2023/01/19 08:16:49;;;;;;;24.45;2.60;;;;;;;22.55;56.79;98392.84;7303366;19;129951;-40
2023/01/19 08:19:15;;;;;;;25.93;3.03;;;;;;;22.61;56.17;98397.41;7308414;19;129360;-40
2023/01/19 08:21:41;;;;;;;36.77;3.53;;;;;;;22.62;56.18;98401.63;7310318;19;129511;-39
2023/01/19 08:24:17;;;;;;;25.47;2.90;;;;;;;22.61;56.64;98395.56;7303963;19;129153;-40
2023/01/19 08:26:43;;;;;;;35.38;3.45;;;;;;;22.67;56.38;98407.16;7308100;19;129479;-39
2023/01/19 08:29:10;;;;;;;24.43;2.97;;;;;;;22.68;56.41;98417.47;7304952;19;129163;-39
2023/01/19 08:31:36;;;;;;;27.67;2.90;;;;;;;22.70;55.82;98419.91;7310191;19;130046;-41
2023/01/19 08:34:02;;;;;;;30.88;3.25;;;;;;;22.75;56.03;98412.34;7299885;19;130875;-37
2023/01/19 08:36:31;;;;;;;38.40;5.03;;;;;;;22.65;56.01;98396.88;7305950;19;129532;-37
2023/01/19 08:38:57;;;;;;;21.30;2.28;;;;;;;22.81;56.26;98422.09;7309259;19;129723;-39
2023/01/19 08:41:24;;;;;;;11.37;1.50;;;;;;;22.76;55.80;98419.19;7307192;19;130328;-41
2023/01/19 08:43:50;;;;;;;24.75;2.47;;;;;;;22.80;55.96;98420.50;7304260;19;129892;-41
2023/01/19 08:46:19;;;;;;;25.40;3.03;;;;;;;22.85;56.27;98421.59;7301518;19;129752;-39
2023/01/19 08:48:46;;;;;;;33.20;3.65;;;;;;;22.82;55.71;98421.13;7305396;19;129233;-38
2023/01/19 08:51:16;;;;;;;34.10;4.13;;;;;;;22.77;56.16;98428.69;7307634;19;131281;-40
2023/01/19 08:53:42;;;;;;;30.35;3.00;;;;;;;22.88;56.08;98418.63;7305248;19;130256;-41
2023/01/19 08:56:12;;;;;;;39.28;3.92;;;;;;;22.80;56.33;98420.50;7305212;19;129317;-39
2023/01/19 08:58:39;;;;;;;19.25;2.17;;;;;;;22.61;56.81;98413.91;7308267;19;130342;-39
2023/01/19 09:01:07;;;;;;;21.88;2.50;;;;;;;22.53;57.13;98413.13;7307514;19;129403;-37
2023/01/19 09:03:34;;;;;;;12.30;1.83;;;;;;;22.50;57.23;98416.09;7303192;19;129540;-40
2023/01/19 09:06:01;;;;;;;30.58;3.15;;;;;;;22.48;56.94;98418.88;7302325;19;129787;-41
2023/01/19 09:08:27;;;;;;;27.83;2.70;;;;;;;22.42;57.15;98422.19;7306968;19;129603;-38
2023/01/19 09:10:53;;;;;;;27.42;3.28;;;;;;;22.40;56.99;98423.34;7306811;19;129222;-40
2023/01/19 09:13:23;;;;;;;28.83;3.33;;;;;;;22.46;57.31;98418.22;7302913;19;129643;-38
2023/01/19 09:15:49;;;;;;;40.58;4.03;;;;;;;22.44;56.82;98419.41;7306010;19;129822;-39
2023/01/19 09:18:18;;;;;;;32.45;3.38;;;;;;;22.59;56.85;98420.31;7308832;19;130996;-41
2023/01/19 09:20:44;;;;;;;7.15;1.23;;;;;;;;;;7308997;19;129992;-40
2023/01/19 09:23:12;;;;;;;39.97;4.53;;;;;;;22.59;56.83;98402.00;7306457;19;129385;-41
2023/01/19 09:25:39;;;;;;;28.15;2.92;;;;;;;22.67;56.76;98420.25;7306436;19;129389;-41
2023/01/19 09:28:06;;;;;;;;;;;;;;;22.70;56.88;98419.91;7305941;19;129052;-38
2023/01/19 09:30:34;;;;;;;17.40;2.47;;;;;;;22.73;56.71;98415.13;7308395;19;129970;-40
2023/01/19 09:33:09;;;;;;;20.80;2.55;;;;;;;22.72;56.70;98417.94;7302092;19;129676;-37
2023/01/19 09:35:39;;;;;;;28.10;2.83;;;;;;;22.75;56.12;98428.06;7306342;19;130206;-38
2023/01/19 09:38:07;;;;;;;37.20;3.42;;;;;;;22.68;56.59;98419.25;7305779;19;129688;-40
2023/01/19 09:40:46;;;;;;;27.30;2.88;;;;;;;22.81;56.48;98424.72;7304696;19;129635;-39
2023/01/19 09:43:31;;;;;;;29.30;3.53;;;;;;;22.73;55.82;98414.31;7303312;19;129302;-41
2023/01/19 09:46:02;;;;;;;15.57;1.85;;;;;;;22.82;55.97;98414.09;7306556;19;129850;-39
2023/01/19 09:48:45;;;;;;;27.88;2.65;;;;;;;22.80;55.89;98415.25;7306784;19;129498;-39
2023/01/19 09:51:16;;;;;;;61.60;7.20;;;;;;;22.80;56.72;98418.69;7302183;19;131144;-38
2023/01/19 09:54:02;;;;;;;48.13;5.18;;;;;;;22.65;56.95;98419.63;7301665;19;131204;-39
2023/01/19 09:56:30;;;;;;;24.17;2.60;;;;;;;22.54;57.14;98420.84;7305637;19;129976;-40
2023/01/19 09:58:57;;;;;;;52.08;5.28;;;;;;;22.45;56.96;98421.03;7311639;19;129285;-37
2023/01/19 10:01:29;;;;;;;21.60;2.45;;;;;;;22.41;57.41;98420.56;7312753;19;129643;-41
2023/01/19 10:04:19;;;;;;;26.15;2.80;;;;;;;22.46;57.07;98412.19;7311193;19;129701;-36
2023/01/19 10:06:46;;;;;;;22.08;2.42;;;;;;;22.45;57.37;98407.94;7309511;19;129740;-40
2023/01/19 10:09:30;;;;;;;36.50;3.90;;;;;;;22.47;56.80;98405.97;7310000;19;129248;-40
2023/01/19 10:12:28;;;;;;;26.00;2.70;;;;;;;22.55;57.33;98400.69;7310532;19;129945;-40
2023/01/19 10:15:12;;;;;;;15.20;1.58;;;;;;;22.58;57.08;98405.56;7311763;19;129559;-40
2023/01/19 10:17:58;;;;;;;27.88;2.88;;;;;;;22.62;56.81;98412.09;7312590;19;130163;-40
2023/01/19 10:20:34;;;;;;;21.00;2.42;;;;;;;22.58;56.52;98390.69;7309113;19;129188;-37
2023/01/19 10:23:03;;;;;;;24.20;2.35;;;;;;;22.70;56.48;98410.25;7312607;19;129996;-40
2023/01/19 10:25:30;;;;;;;32.03;3.30;;;;;;;22.84;56.31;98412.09;7311501;19;129193;-38
2023/01/19 10:27:59;;;;;;;47.22;5.18;;;;;;;22.74;56.45;98408.09;7310221;19;129850;-40
2023/01/19 10:30:29;;;;;;;25.55;2.60;;;;;;;22.74;56.36;98402.84;7310068;19;130193;-40
2023/01/19 10:33:02;;;;;;;99.38;10.77;;;;;;;22.83;56.40;98409.66;7305483;19;130253;-39
2023/01/19 10:35:29;;;;;;;43.67;4.57;;;;;;;22.76;56.16;98387.75;7309549;19;129927;-38
2023/01/19 10:38:00;;;;;;;47.60;4.82;;;;;;;22.85;55.96;98407.69;7311470;19;129484;-35
2023/01/19 10:40:38;;;;;;;21.17;2.10;;;;;;;22.83;56.30;98409.66;7309403;19;129045;-41
2023/01/19 10:43:43;;;;;;;21.52;2.40;;;;;;;22.76;56.18;98393.81;7310418;19;129014;-38
2023/01/19 10:46:33;;;;;;;18.65;1.95;;;;;;;22.73;56.81;98401.22;7312858;19;129844;-40
2023/01/19 10:48:59;;;;;;;17.10;1.92;;;;;;;22.62;56.35;98404.25;7303194;19;131190;-38
2023/01/19 10:51:26;;;;;;;18.98;2.20;;;;;;;22.51;57.28;98396.78;7313075;19;129344;-41
2023/01/19 10:53:56;;;;;;;9.70;1.50;;;;;;;22.41;57.72;98394.38;7309356;19;129411;-39
2023/01/19 10:56:26;;;;;;;28.90;2.95;;;;;;;22.40;57.88;98397.16;7311605;19;129340;-40
2023/01/19 10:58:52;;;;;;;27.10;2.63;;;;;;;22.39;57.44;98391.13;7313055;19;129375;-40
2023/01/19 11:01:23;;;;;;;27.13;3.00;;;;;;;22.44;57.16;98398.44;7314075;19;128943;-37
2023/01/19 11:03:49;;;;;;;15.43;1.67;;;;;;;22.39;57.81;98390.31;7310648;19;129699;-40
2023/01/19 11:06:23;;;;;;;31.92;3.22;;;;;;;22.46;57.67;98393.88;7310127;19;129128;-38
2023/01/19 11:08:50;;;;;;;37.67;3.55;;;;;;;22.43;57.08;98378.50;7307949;19;129980;-41
2023/01/19 11:11:22;;;;;;;41.05;4.10;;;;;;;22.50;57.01;98398.56;7312525;19;129398;-38
2023/01/19 11:14:10;;;;;;;23.00;2.15;;;;;;;22.59;57.46;98391.50;7306512;19;130488;-40
2023/01/19 11:16:38;;;;;;;20.15;2.28;;;;;;;22.63;56.97;98390.16;7310864;19;129098;-41
2023/01/19 11:19:16;;;;;;;23.35;2.45;;;;;;;22.68;57.28;98390.44;7309623;19;130025;-40
2023/01/19 11:21:43;;;;;;;21.67;2.35;;;;;;;22.58;56.73;98368.91;7313153;19;129316;-40
2023/01/19 11:24:13;;;;;;;30.77;3.13;;;;;;;22.75;56.37;98381.72;7309429;19;129849;-39
2023/01/19 11:26:43;;;;;;;23.65;2.63;;;;;;;22.73;56.41;98383.69;7310020;19;129313;-39
2023/01/19 11:29:20;;;;;;;28.30;2.95;;;;;;;22.75;56.59;98384.34;7308131;19;129530;-36
2023/01/19 11:31:47;;;;;;;19.67;2.17;;;;;;;22.81;56.72;98396.72;7312429;19;130530;-41
2023/01/19 11:34:24;;;;;;;;;;;;;;;22.78;56.84;98385.78;7308722;19;129514;-38
2023/01/19 11:37:00;;;;;;;32.55;3.15;;;;;;;22.75;56.30;98371.25;7311474;19;129765;-40
2023/01/19 11:39:31;;;;;;;38.40;3.78;;;;;;;22.88;56.49;98391.59;7309662;19;129959;-38